Big Sur, CA

2:59 PM PDT on October 21, 2014 (GMT -0700)
Cachagua | Change Station
CLOSE
Current Station
Personal Weather Station
Location: Carmel Valley, CA
Elevation: 850 ft
Nearby Weather Stations
Active Advisory: Beach Hazard Statement

Elev 850 ft 36.40 °N, 121.65 °W | Updated 12 seconds ago

Clear
Clear
72.3 °F
Feels Like 77 °F
N
0.7
Wind Variable Wind from SE
Gusts 3.8 mph

Today
High -- | Low -- °F
--% Chance of Precip.
Yesterday
High -- | Low -- °F
Precip. -- in
7:19 AM 6:22 PM
Waning Crescent, 4% visible
Pressure 30.06 in
Visibility 10.0 miles
Clouds Clear
Heat Index 77 °F
Dew Point 48 °F
Humidity 42%
Rainfall 0.00 in
Snow Depth Not available.
UV 4 out of 12
Pollen 2.30 out of 12
Air Quality Not available.
Flu Activity Sporadic
METAR KMRY 212154Z 28008KT 10SM CLR 18/11 A3002 RMK AO2 SLP177 T01830106

More Conditions Fewer Conditions

Pressure 30.06 in
Visibility 10.0 miles
Clouds Clear
Heat Index 77 °F
Dew Point 48 °F
Humidity 42%
Rainfall 0.00 in
Snow Depth Not available.
UV 4 out of 12
Pollen 2.30 out of 12
Air Quality Not available.
Flu Activity Sporadic
METAR KMRY 212154Z 28008KT 10SM CLR 18/11 A3002 RMK AO2 SLP177 T01830106

More Conditions Fewer Conditions

10-Day Weather Forecast

Almanac

Astronomy

Oct. 21, 2014 Rise Set
Actual Time 7:19 AM PDT 6:22 PM PDT
Civil Twilight 6:52 AM PDT 6:48 PM PDT
Nautical Twilight 6:22 AM PDT 7:18 PM PDT
Astronomical Twilight 5:53 AM PDT 7:48 PM PDT
Moon 5:12 AM PDT 5:16 PM PDT
Length of Visible Light 11h 56m
Length of Day
11h 03m
Tomorrow will be 2m 8s shorter.
Waning Crescent, 4% of the Moon is Illuminated
Today
Waning Crescent
Oct 23
New
Oct 30
First Quarter
Nov 6
Full
Nov 14
Last Quarter

Today's Extremes

State Highs State Lows

Community

WunderPhotos

Upload Photos

1,763,785 photos uploaded!

Nearby

Snow Depth

Station Depth Elevation
Virginia Lakes Ridge 0 in 9200 ft
Leavitt Meadows 1 in 7200 ft
Echo Peak 1 in 7800 ft
Rubicon #2 0 in 7500 ft
Ward Creek #3 1 in 6750 ft

Earthquake Activity

City Distance Mag. Time & Date
East Foothills, California 85 miles 2.6 8:16 AM PDT
2014-10-18
Minimum magnitude displayed is 2.5.

Coastal Water Temperatures

Place Temperature
Monterey, CA 63.0 °F
Port San Luis, CA 66.9 °F

Nearby Weather Stations